Aérodrome :
LOGIN :

S'inscrire | Disclaimer

   EN    FR    IT 

 










Légende :    VFR   VFR Marginal   IFR   IFR Intensif   IFR Très Intensif
Visi : 
Plafond : 
>= 8 km
>= 3000ft
5 à 8 km
1000 à 3000 ft
1500m à 5 km
500 à 1000 ft
800 à 1500m
200 à 500 ft
< 800m
< 200 ft
Symboles :   Orages  Brouillard  Fortes neiges  Fortes précipitations  Vent > 20 kt
SIGMETs :   Divers  Orages  Givrage  Turbulence  Onde Orograph.  Cendres Volcan.







- Altitude de l'aérodrome : 325 ft
- Code IATA : BES
- Voir les cartes d'approche


LFRB - Brest

DERNIER METAR :
  • 160700Z AUTO 12005KT 9999 OVC010 13/11 Q1020 TEMPO 1500 BR OVC003

METARs EXPIRÉS :
  • 160630Z AUTO VRB02KT 9999 OVC010 13/11 Q1020 TEMPO 1500 BR OVC003
  • 160600Z AUTO 15005KT 120V180 9999 OVC010 13/11 Q1020 TEMPO 1500 BR OVC003
  • 160530Z AUTO 14006KT 9999 OVC010 13/10 Q1019 TEMPO 1500 BR OVC003
  • 160500Z AUTO 14006KT 9999 OVC010 13/10 Q1019 TEMPO 3000 BR VV///
  • 160430Z AUTO 14005KT 9999 OVC010 13/11 Q1019 TEMPO 3000 BR VV///
  • 160400Z AUTO 15005KT 120V180 9999 OVC010 13/11 Q1019 TEMPO 0800 FG VV///

TAF TAF LFRB
Valide du 16 à 06h jusqu'au 17 à 12h UTC


160500Z 1606/1712 15005KT 9999 OVC010
PROB30
TEMPO 1606/1610 1500 BR OVC003
BECMG 1610/1612 BKN015
ATIS : +33 2 98 32 02 71
Pas de NOTAMs connus pour ce terrain.



MET'MAP, la Météo Aéronautique d'un coup d'oeil ! - Copyright ORBIFLY Décembre 2007 - Disclaimer

ORBIFLY MET'MAP TEAM :

Programmation & Développement : Alexandra Zaïnal
Conception & Développement : Baudouin d'Aumeries
Co-Programmation & Développement : Marc-Olivier Méhu
Soutien technique & logistique : Manuel Goepfert

Contact : metmap@orbifly.com




SOURCES & CREDITS :

   NOAA